sensor_id;sensor_type;location;lat;lon;timestamp;temperature;humidity
12981;DHT22;6555;50.468;8.480;2022-12-18T00:02:18;-6.20;56.40
12981;DHT22;6555;50.468;8.480;2022-12-18T00:07:21;-6.30;56.30
12981;DHT22;6555;50.468;8.480;2022-12-18T00:12:24;-6.30;56.30
12981;DHT22;6555;50.468;8.480;2022-12-18T00:17:28;-6.40;55.90
12981;DHT22;6555;50.468;8.480;2022-12-18T00:22:31;-6.50;55.70
12981;DHT22;6555;50.468;8.480;2022-12-18T00:27:34;-6.60;55.80
12981;DHT22;6555;50.468;8.480;2022-12-18T00:32:38;-6.70;55.90
12981;DHT22;6555;50.468;8.480;2022-12-18T00:37:41;-6.70;56.10
12981;DHT22;6555;50.468;8.480;2022-12-18T00:42:46;-6.80;56.10
12981;DHT22;6555;50.468;8.480;2022-12-18T00:48:02;-6.80;56.00
12981;DHT22;6555;50.468;8.480;2022-12-18T00:53:05;-6.70;56.00
12981;DHT22;6555;50.468;8.480;2022-12-18T00:58:09;-6.80;56.00
12981;DHT22;6555;50.468;8.480;2022-12-18T01:03:14;-6.80;56.20
12981;DHT22;6555;50.468;8.480;2022-12-18T01:08:19;-6.80;56.20
12981;DHT22;6555;50.468;8.480;2022-12-18T01:13:22;-6.80;56.20
12981;DHT22;6555;50.468;8.480;2022-12-18T01:18:27;-6.70;56.30
12981;DHT22;6555;50.468;8.480;2022-12-18T01:23:33;-6.70;56.10
12981;DHT22;6555;50.468;8.480;2022-12-18T01:28:37;-6.80;55.80
12981;DHT22;6555;50.468;8.480;2022-12-18T01:33:43;-6.90;55.80
12981;DHT22;6555;50.468;8.480;2022-12-18T01:38:46;-6.90;55.90
12981;DHT22;6555;50.468;8.480;2022-12-18T01:43:52;-7.00;55.90
12981;DHT22;6555;50.468;8.480;2022-12-18T01:48:59;-7.00;55.90
12981;DHT22;6555;50.468;8.480;2022-12-18T01:54:03;-7.00;55.90
12981;DHT22;6555;50.468;8.480;2022-12-18T01:59:08;-7.00;55.90
12981;DHT22;6555;50.468;8.480;2022-12-18T02:04:21;-7.00;55.80
12981;DHT22;6555;50.468;8.480;2022-12-18T02:09:28;-7.10;55.60
12981;DHT22;6555;50.468;8.480;2022-12-18T02:14:38;-7.10;55.70
12981;DHT22;6555;50.468;8.480;2022-12-18T02:19:54;-7.20;55.60
12981;DHT22;6555;50.468;8.480;2022-12-18T02:25:10;-7.20;55.70
12981;DHT22;6555;50.468;8.480;2022-12-18T02:30:18;-7.30;55.70
12981;DHT22;6555;50.468;8.480;2022-12-18T02:35:23;-7.30;55.60
12981;DHT22;6555;50.468;8.480;2022-12-18T02:40:31;-7.40;55.50
12981;DHT22;6555;50.468;8.480;2022-12-18T02:45:45;-7.40;55.60
12981;DHT22;6555;50.468;8.480;2022-12-18T02:50:53;-7.40;55.60
12981;DHT22;6555;50.468;8.480;2022-12-18T02:56:03;-7.40;55.60
12981;DHT22;6555;50.468;8.480;2022-12-18T03:01:11;-7.50;55.50
12981;DHT22;6555;50.468;8.480;2022-12-18T03:06:21;-7.50;55.60
12981;DHT22;6555;50.468;8.480;2022-12-18T03:11:29;-7.60;55.60
12981;DHT22;6555;50.468;8.480;2022-12-18T03:17:00;-7.60;55.50
12981;DHT22;6555;50.468;8.480;2022-12-18T03:22:07;-7.60;55.50
12981;DHT22;6555;50.468;8.480;2022-12-18T03:27:20;-7.60;55.40
12981;DHT22;6555;50.468;8.480;2022-12-18T03:32:31;-7.70;55.40
12981;DHT22;6555;50.468;8.480;2022-12-18T03:37:37;-7.80;55.40
12981;DHT22;6555;50.468;8.480;2022-12-18T03:42:46;-7.80;55.50
12981;DHT22;6555;50.468;8.480;2022-12-18T03:47:59;-7.80;55.70
12981;DHT22;6555;50.468;8.480;2022-12-18T03:53:15;-7.70;55.60
12981;DHT22;6555;50.468;8.480;2022-12-18T03:58:24;-7.80;55.40
12981;DHT22;6555;50.468;8.480;2022-12-18T04:03:44;-7.80;55.50
12981;DHT22;6555;50.468;8.480;2022-12-18T04:08:49;-7.80;55.50
12981;DHT22;6555;50.468;8.480;2022-12-18T04:13:57;-7.80;55.60
12981;DHT22;6555;50.468;8.480;2022-12-18T04:19:01;-7.80;55.60
12981;DHT22;6555;50.468;8.480;2022-12-18T04:24:10;-7.80;55.60
12981;DHT22;6555;50.468;8.480;2022-12-18T04:29:19;-7.80;55.60
12981;DHT22;6555;50.468;8.480;2022-12-18T04:34:24;-7.80;55.60
12981;DHT22;6555;50.468;8.480;2022-12-18T04:39:28;-7.80;55.60
12981;DHT22;6555;50.468;8.480;2022-12-18T04:44:36;-7.80;55.40
12981;DHT22;6555;50.468;8.480;2022-12-18T04:49:40;-7.80;55.40
12981;DHT22;6555;50.468;8.480;2022-12-18T04:54:43;-7.90;55.40
12981;DHT22;6555;50.468;8.480;2022-12-18T04:59:46;-7.90;55.40
12981;DHT22;6555;50.468;8.480;2022-12-18T05:04:52;-7.90;55.50
12981;DHT22;6555;50.468;8.480;2022-12-18T05:09:55;-7.90;55.50
12981;DHT22;6555;50.468;8.480;2022-12-18T05:14:58;-7.90;55.50
12981;DHT22;6555;50.468;8.480;2022-12-18T05:20:02;-7.90;55.50
12981;DHT22;6555;50.468;8.480;2022-12-18T05:25:06;-7.90;55.40
12981;DHT22;6555;50.468;8.480;2022-12-18T05:30:11;-8.00;55.40
12981;DHT22;6555;50.468;8.480;2022-12-18T05:35:15;-8.00;56.10
12981;DHT22;6555;50.468;8.480;2022-12-18T05:40:18;-8.00;55.90
12981;DHT22;6555;50.468;8.480;2022-12-18T05:45:21;-8.00;55.30
12981;DHT22;6555;50.468;8.480;2022-12-18T05:50:26;-8.00;55.20
12981;DHT22;6555;50.468;8.480;2022-12-18T05:55:35;-8.10;55.30
12981;DHT22;6555;50.468;8.480;2022-12-18T06:00:40;-8.20;55.30
12981;DHT22;6555;50.468;8.480;2022-12-18T06:05:45;-8.20;55.20
12981;DHT22;6555;50.468;8.480;2022-12-18T06:10:50;-8.20;55.20
12981;DHT22;6555;50.468;8.480;2022-12-18T06:15:54;-8.20;55.30
12981;DHT22;6555;50.468;8.480;2022-12-18T06:20:59;-8.20;55.40
12981;DHT22;6555;50.468;8.480;2022-12-18T06:26:04;-8.20;55.20
12981;DHT22;6555;50.468;8.480;2022-12-18T06:31:08;-8.30;55.20
12981;DHT22;6555;50.468;8.480;2022-12-18T06:36:13;-8.30;55.20
12981;DHT22;6555;50.468;8.480;2022-12-18T06:41:18;-8.30;55.30
12981;DHT22;6555;50.468;8.480;2022-12-18T06:46:21;-8.30;55.40
12981;DHT22;6555;50.468;8.480;2022-12-18T06:51:25;-8.30;55.30
12981;DHT22;6555;50.468;8.480;2022-12-18T06:56:28;-8.30;55.30
12981;DHT22;6555;50.468;8.480;2022-12-18T07:01:31;-8.40;55.10
12981;DHT22;6555;50.468;8.480;2022-12-18T07:06:36;-8.40;55.20
12981;DHT22;6555;50.468;8.480;2022-12-18T07:11:39;-8.40;55.30
12981;DHT22;6555;50.468;8.480;2022-12-18T07:16:42;-8.40;55.30
12981;DHT22;6555;50.468;8.480;2022-12-18T07:21:46;-8.40;55.30
12981;DHT22;6555;50.468;8.480;2022-12-18T07:26:49;-8.50;55.30
12981;DHT22;6555;50.468;8.480;2022-12-18T07:31:52;-8.40;55.30
12981;DHT22;6555;50.468;8.480;2022-12-18T07:36:57;-8.40;55.50
12981;DHT22;6555;50.468;8.480;2022-12-18T07:42:00;-8.40;55.50
12981;DHT22;6555;50.468;8.480;2022-12-18T07:47:22;-8.40;55.30
12981;DHT22;6555;50.468;8.480;2022-12-18T07:52:27;-8.40;55.20
12981;DHT22;6555;50.468;8.480;2022-12-18T07:57:30;-8.50;55.20
12981;DHT22;6555;50.468;8.480;2022-12-18T08:02:53;-8.50;55.20
12981;DHT22;6555;50.468;8.480;2022-12-18T08:07:58;-8.50;55.30
12981;DHT22;6555;50.468;8.480;2022-12-18T08:13:01;-8.50;55.50
12981;DHT22;6555;50.468;8.480;2022-12-18T08:18:06;-8.50;55.60
12981;DHT22;6555;50.468;8.480;2022-12-18T08:23:16;-8.40;55.80
12981;DHT22;6555;50.468;8.480;2022-12-18T08:28:19;-8.30;56.20
12981;DHT22;6555;50.468;8.480;2022-12-18T08:33:23;-8.10;56.50
12981;DHT22;6555;50.468;8.480;2022-12-18T08:38:28;-7.90;56.80
12981;DHT22;6555;50.468;8.480;2022-12-18T08:43:32;-7.80;56.60
12981;DHT22;6555;50.468;8.480;2022-12-18T08:48:53;-7.60;56.60
12981;DHT22;6555;50.468;8.480;2022-12-18T08:53:58;-7.40;56.80
12981;DHT22;6555;50.468;8.480;2022-12-18T08:59:01;-7.30;56.90
12981;DHT22;6555;50.468;8.480;2022-12-18T09:04:04;-7.10;57.20
12981;DHT22;6555;50.468;8.480;2022-12-18T09:09:10;-7.00;57.20
12981;DHT22;6555;50.468;8.480;2022-12-18T09:14:13;-6.80;57.30
12981;DHT22;6555;50.468;8.480;2022-12-18T09:19:16;-6.70;57.50
12981;DHT22;6555;50.468;8.480;2022-12-18T09:24:20;-6.50;57.50
12981;DHT22;6555;50.468;8.480;2022-12-18T09:29:23;-6.40;57.50
12981;DHT22;6555;50.468;8.480;2022-12-18T09:34:27;-6.20;57.70
12981;DHT22;6555;50.468;8.480;2022-12-18T09:39:32;-6.00;57.90
12981;DHT22;6555;50.468;8.480;2022-12-18T09:44:38;-5.90;57.90
12981;DHT22;6555;50.468;8.480;2022-12-18T09:49:48;-5.80;57.90
12981;DHT22;6555;50.468;8.480;2022-12-18T09:54:56;-5.60;58.10
12981;DHT22;6555;50.468;8.480;2022-12-18T10:00:15;-5.50;58.10
12981;DHT22;6555;50.468;8.480;2022-12-18T10:05:25;-5.30;58.30
12981;DHT22;6555;50.468;8.480;2022-12-18T10:10:38;-5.20;58.20
12981;DHT22;6555;50.468;8.480;2022-12-18T10:15:53;-5.00;58.20
12981;DHT22;6555;50.468;8.480;2022-12-18T10:21:05;-4.90;58.40
12981;DHT22;6555;50.468;8.480;2022-12-18T10:26:13;-4.70;58.70
12981;DHT22;6555;50.468;8.480;2022-12-18T10:31:18;-4.50;58.90
12981;DHT22;6555;50.468;8.480;2022-12-18T10:36:25;-4.40;59.10
12981;DHT22;6555;50.468;8.480;2022-12-18T10:41:30;-4.20;59.30
12981;DHT22;6555;50.468;8.480;2022-12-18T10:46:34;-4.00;59.40
12981;DHT22;6555;50.468;8.480;2022-12-18T10:51:37;-3.80;60.30
12981;DHT22;6555;50.468;8.480;2022-12-18T10:56:43;-3.60;60.20
12981;DHT22;6555;50.468;8.480;2022-12-18T11:01:49;-3.40;61.20
12981;DHT22;6555;50.468;8.480;2022-12-18T11:06:58;-3.10;62.70
12981;DHT22;6555;50.468;8.480;2022-12-18T11:12:06;-2.90;62.10
12981;DHT22;6555;50.468;8.480;2022-12-18T11:17:19;-2.60;61.40
12981;DHT22;6555;50.468;8.480;2022-12-18T11:22:29;-2.40;60.80
12981;DHT22;6555;50.468;8.480;2022-12-18T11:27:34;-2.30;61.10
12981;DHT22;6555;50.468;8.480;2022-12-18T11:32:38;-2.10;60.80
12981;DHT22;6555;50.468;8.480;2022-12-18T11:37:47;-2.00;60.30
12981;DHT22;6555;50.468;8.480;2022-12-18T11:42:56;-1.90;60.40
12981;DHT22;6555;50.468;8.480;2022-12-18T11:48:03;-1.80;59.70
12981;DHT22;6555;50.468;8.480;2022-12-18T11:53:11;-1.80;59.30
12981;DHT22;6555;50.468;8.480;2022-12-18T11:58:25;-1.70;59.10
12981;DHT22;6555;50.468;8.480;2022-12-18T12:03:53;-1.80;58.40
12981;DHT22;6555;50.468;8.480;2022-12-18T12:09:07;-1.80;58.30
12981;DHT22;6555;50.468;8.480;2022-12-18T12:14:29;-1.90;59.00
12981;DHT22;6555;50.468;8.480;2022-12-18T12:19:41;-1.90;58.40
12981;DHT22;6555;50.468;8.480;2022-12-18T12:24:56;-1.90;58.40
12981;DHT22;6555;50.468;8.480;2022-12-18T12:30:16;-1.90;58.30
12981;DHT22;6555;50.468;8.480;2022-12-18T12:35:30;-1.90;58.50
12981;DHT22;6555;50.468;8.480;2022-12-18T12:40:39;-2.00;58.00
12981;DHT22;6555;50.468;8.480;2022-12-18T12:46:04;-2.00;58.00
12981;DHT22;6555;50.468;8.480;2022-12-18T12:51:14;-2.10;58.20
12981;DHT22;6555;50.468;8.480;2022-12-18T12:56:20;-2.10;58.20
12981;DHT22;6555;50.468;8.480;2022-12-18T13:01:32;-2.20;58.00
12981;DHT22;6555;50.468;8.480;2022-12-18T13:06:43;-2.20;57.90
12981;DHT22;6555;50.468;8.480;2022-12-18T13:11:48;-2.20;58.10
12981;DHT22;6555;50.468;8.480;2022-12-18T13:17:31;-2.20;58.20
12981;DHT22;6555;50.468;8.480;2022-12-18T13:22:36;-2.20;58.30
12981;DHT22;6555;50.468;8.480;2022-12-18T13:28:03;-2.20;58.00
12981;DHT22;6555;50.468;8.480;2022-12-18T13:33:38;-2.20;58.10
12981;DHT22;6555;50.468;8.480;2022-12-18T13:39:32;-2.30;58.10
12981;DHT22;6555;50.468;8.480;2022-12-18T13:44:40;-2.30;58.10
12981;DHT22;6555;50.468;8.480;2022-12-18T13:49:46;-2.30;58.20
12981;DHT22;6555;50.468;8.480;2022-12-18T13:54:52;-2.30;58.20
12981;DHT22;6555;50.468;8.480;2022-12-18T13:59:56;-2.40;58.10
12981;DHT22;6555;50.468;8.480;2022-12-18T14:05:01;-2.50;58.40
12981;DHT22;6555;50.468;8.480;2022-12-18T14:10:14;-2.50;58.60
12981;DHT22;6555;50.468;8.480;2022-12-18T14:15:40;-2.60;58.70
12981;DHT22;6555;50.468;8.480;2022-12-18T14:20:47;-2.60;58.80
12981;DHT22;6555;50.468;8.480;2022-12-18T14:25:54;-2.60;58.70
12981;DHT22;6555;50.468;8.480;2022-12-18T14:31:02;-2.60;58.70
12981;DHT22;6555;50.468;8.480;2022-12-18T14:36:16;-2.60;58.80
12981;DHT22;6555;50.468;8.480;2022-12-18T14:41:20;-2.60;58.80
12981;DHT22;6555;50.468;8.480;2022-12-18T14:46:33;-2.50;58.80
12981;DHT22;6555;50.468;8.480;2022-12-18T14:51:38;-2.50;59.00
12981;DHT22;6555;50.468;8.480;2022-12-18T14:56:44;-2.50;58.80
12981;DHT22;6555;50.468;8.480;2022-12-18T15:01:57;-2.50;59.00
12981;DHT22;6555;50.468;8.480;2022-12-18T15:07:06;-2.50;58.90
12981;DHT22;6555;50.468;8.480;2022-12-18T15:12:33;-2.50;59.20
12981;DHT22;6555;50.468;8.480;2022-12-18T15:17:36;-2.50;58.90
12981;DHT22;6555;50.468;8.480;2022-12-18T15:22:41;-2.40;58.80
12981;DHT22;6555;50.468;8.480;2022-12-18T15:27:46;-2.40;58.80
12981;DHT22;6555;50.468;8.480;2022-12-18T15:32:51;-2.30;58.90
12981;DHT22;6555;50.468;8.480;2022-12-18T15:37:57;-2.30;58.90
12981;DHT22;6555;50.468;8.480;2022-12-18T15:43:01;-2.20;59.00
12981;DHT22;6555;50.468;8.480;2022-12-18T15:48:22;-2.20;58.90
12981;DHT22;6555;50.468;8.480;2022-12-18T15:53:30;-2.20;59.00
12981;DHT22;6555;50.468;8.480;2022-12-18T15:58:35;-2.20;59.00
12981;DHT22;6555;50.468;8.480;2022-12-18T16:03:38;-2.20;58.90
12981;DHT22;6555;50.468;8.480;2022-12-18T16:08:43;-2.10;59.00
12981;DHT22;6555;50.468;8.480;2022-12-18T16:13:46;-2.10;59.00
12981;DHT22;6555;50.468;8.480;2022-12-18T16:18:50;-2.00;59.00
12981;DHT22;6555;50.468;8.480;2022-12-18T16:23:54;-2.00;58.90
12981;DHT22;6555;50.468;8.480;2022-12-18T16:28:58;-2.00;58.80
12981;DHT22;6555;50.468;8.480;2022-12-18T16:34:13;-1.90;58.90
12981;DHT22;6555;50.468;8.480;2022-12-18T16:39:18;-1.90;59.00
12981;DHT22;6555;50.468;8.480;2022-12-18T16:44:21;-1.90;58.90
12981;DHT22;6555;50.468;8.480;2022-12-18T16:49:24;-1.90;59.10
12981;DHT22;6555;50.468;8.480;2022-12-18T16:54:28;-1.90;59.10
12981;DHT22;6555;50.468;8.480;2022-12-18T16:59:32;-1.80;59.00
12981;DHT22;6555;50.468;8.480;2022-12-18T17:04:35;-1.80;59.00
12981;DHT22;6555;50.468;8.480;2022-12-18T17:09:40;-1.80;59.10
12981;DHT22;6555;50.468;8.480;2022-12-18T17:14:43;-1.70;59.10
12981;DHT22;6555;50.468;8.480;2022-12-18T17:19:47;-1.70;59.30
12981;DHT22;6555;50.468;8.480;2022-12-18T17:24:52;-1.60;59.30
12981;DHT22;6555;50.468;8.480;2022-12-18T17:29:54;-1.60;59.50
12981;DHT22;6555;50.468;8.480;2022-12-18T17:34:57;-1.60;59.60
12981;DHT22;6555;50.468;8.480;2022-12-18T17:40:11;-1.50;59.70
12981;DHT22;6555;50.468;8.480;2022-12-18T17:45:14;-1.50;59.80
12981;DHT22;6555;50.468;8.480;2022-12-18T17:50:17;-1.50;59.90
12981;DHT22;6555;50.468;8.480;2022-12-18T17:55:21;-1.40;60.10
12981;DHT22;6555;50.468;8.480;2022-12-18T18:00:24;-1.40;60.60
12981;DHT22;6555;50.468;8.480;2022-12-18T18:05:27;-1.40;60.20
12981;DHT22;6555;50.468;8.480;2022-12-18T18:10:35;-1.40;60.30
12981;DHT22;6555;50.468;8.480;2022-12-18T18:15:39;-1.30;60.30
12981;DHT22;6555;50.468;8.480;2022-12-18T18:20:50;-1.30;60.20
12981;DHT22;6555;50.468;8.480;2022-12-18T18:25:54;-1.20;60.30
12981;DHT22;6555;50.468;8.480;2022-12-18T18:30:59;-1.20;60.50
12981;DHT22;6555;50.468;8.480;2022-12-18T18:36:10;-1.10;60.80
12981;DHT22;6555;50.468;8.480;2022-12-18T18:41:13;-1.10;60.30
12981;DHT22;6555;50.468;8.480;2022-12-18T18:46:16;-1.00;60.50
12981;DHT22;6555;50.468;8.480;2022-12-18T18:51:21;-1.00;60.30
12981;DHT22;6555;50.468;8.480;2022-12-18T18:56:24;-0.90;60.10
12981;DHT22;6555;50.468;8.480;2022-12-18T19:01:48;-0.90;60.40
12981;DHT22;6555;50.468;8.480;2022-12-18T19:06:54;-0.80;60.40
12981;DHT22;6555;50.468;8.480;2022-12-18T19:11:58;-0.70;60.50
12981;DHT22;6555;50.468;8.480;2022-12-18T19:17:18;-0.70;60.40
12981;DHT22;6555;50.468;8.480;2022-12-18T19:22:30;-0.70;60.20
12981;DHT22;6555;50.468;8.480;2022-12-18T19:27:32;-0.60;60.20
12981;DHT22;6555;50.468;8.480;2022-12-18T19:32:39;-0.60;60.30
12981;DHT22;6555;50.468;8.480;2022-12-18T19:37:43;-0.60;60.30
12981;DHT22;6555;50.468;8.480;2022-12-18T19:42:46;-0.60;60.30
12981;DHT22;6555;50.468;8.480;2022-12-18T19:47:49;-0.50;60.30
12981;DHT22;6555;50.468;8.480;2022-12-18T19:52:54;-0.50;60.00
12981;DHT22;6555;50.468;8.480;2022-12-18T19:57:57;-0.50;60.10
12981;DHT22;6555;50.468;8.480;2022-12-18T20:03:00;-0.40;59.90
12981;DHT22;6555;50.468;8.480;2022-12-18T20:08:18;-0.40;59.90
12981;DHT22;6555;50.468;8.480;2022-12-18T20:13:21;-0.30;59.90
12981;DHT22;6555;50.468;8.480;2022-12-18T20:18:24;-0.30;59.80
12981;DHT22;6555;50.468;8.480;2022-12-18T20:25:46;-0.30;59.30
12981;DHT22;6555;50.468;8.480;2022-12-18T20:30:50;-0.30;59.80
12981;DHT22;6555;50.468;8.480;2022-12-18T20:35:53;-0.30;59.60
12981;DHT22;6555;50.468;8.480;2022-12-18T20:40:58;-0.30;59.50
12981;DHT22;6555;50.468;8.480;2022-12-18T20:46:05;-0.30;59.50
12981;DHT22;6555;50.468;8.480;2022-12-18T20:51:10;-0.20;59.50
12981;DHT22;6555;50.468;8.480;2022-12-18T20:56:17;-0.30;59.40
12981;DHT22;6555;50.468;8.480;2022-12-18T21:01:23;-0.20;59.40
12981;DHT22;6555;50.468;8.480;2022-12-18T21:06:27;-0.20;59.40
12981;DHT22;6555;50.468;8.480;2022-12-18T21:11:32;-0.30;59.30
12981;DHT22;6555;50.468;8.480;2022-12-18T21:16:53;-0.30;59.30
12981;DHT22;6555;50.468;8.480;2022-12-18T21:21:57;-0.30;59.30
12981;DHT22;6555;50.468;8.480;2022-12-18T21:27:02;-0.20;59.40
12981;DHT22;6555;50.468;8.480;2022-12-18T21:32:06;-0.20;59.40
12981;DHT22;6555;50.468;8.480;2022-12-18T21:37:09;-0.20;59.30
12981;DHT22;6555;50.468;8.480;2022-12-18T21:42:15;-0.20;59.30
12981;DHT22;6555;50.468;8.480;2022-12-18T21:47:35;-0.10;59.40
12981;DHT22;6555;50.468;8.480;2022-12-18T21:52:39;-0.10;59.30
12981;DHT22;6555;50.468;8.480;2022-12-18T21:57:43;-0.10;59.30
12981;DHT22;6555;50.468;8.480;2022-12-18T22:02:47;-0.10;59.30
12981;DHT22;6555;50.468;8.480;2022-12-18T22:08:10;-0.10;59.20
12981;DHT22;6555;50.468;8.480;2022-12-18T22:13:15;-0.10;59.30
12981;DHT22;6555;50.468;8.480;2022-12-18T22:18:18;-0.10;59.30
12981;DHT22;6555;50.468;8.480;2022-12-18T22:23:22;0.00;59.30
12981;DHT22;6555;50.468;8.480;2022-12-18T22:28:26;-0.10;59.20
12981;DHT22;6555;50.468;8.480;2022-12-18T22:33:46;0.00;59.20
12981;DHT22;6555;50.468;8.480;2022-12-18T22:38:49;0.00;59.10
12981;DHT22;6555;50.468;8.480;2022-12-18T22:43:55;0.00;59.10
12981;DHT22;6555;50.468;8.480;2022-12-18T22:48:58;0.00;59.10
12981;DHT22;6555;50.468;8.480;2022-12-18T22:54:01;0.00;59.10
12981;DHT22;6555;50.468;8.480;2022-12-18T22:59:07;0.00;59.00
12981;DHT22;6555;50.468;8.480;2022-12-18T23:04:10;0.00;59.10
12981;DHT22;6555;50.468;8.480;2022-12-18T23:09:15;0.00;59.00
12981;DHT22;6555;50.468;8.480;2022-12-18T23:14:20;0.00;59.10
12981;DHT22;6555;50.468;8.480;2022-12-18T23:19:23;0.10;59.30
12981;DHT22;6555;50.468;8.480;2022-12-18T23:24:27;0.10;59.20
12981;DHT22;6555;50.468;8.480;2022-12-18T23:29:35;0.10;59.20
12981;DHT22;6555;50.468;8.480;2022-12-18T23:34:38;0.20;59.00
12981;DHT22;6555;50.468;8.480;2022-12-18T23:39:41;0.20;58.90
12981;DHT22;6555;50.468;8.480;2022-12-18T23:44:45;0.20;59.00
12981;DHT22;6555;50.468;8.480;2022-12-18T23:49:48;0.20;59.10
12981;DHT22;6555;50.468;8.480;2022-12-18T23:54:51;0.30;59.20
12981;DHT22;6555;50.468;8.480;2022-12-18T23:59:55;0.30;59.10
